Northwest Alabama Regional Airport
KMSL : now visible

Airfield :











YOU CAN JOIN US ON...

 
LOGIN :

Register | Disclaimer

   EN    FR    IT 

 









Legend :    VFR   Marginal VFR   IFR   Intensive IFR   Very Intensive IFR
Visi :
Ceiling :
>= 8 km
>= 3000ft
5 to 8 km
1000 to 3000 ft
1500m to 5 km
500 to 1000 ft
800 to 1500m
200 to 500 ft
< 800m
< 200 ft
Symbols :   Thunderstorms  Fog  Heavy snow  Heavy precipitations  Wind > 20 kt






- Airport Elevation : 551 ft
- IATA code : MSL


KMSL - Northwest Alabama Regional

CURRENT METAR :
  • 080653Z AUTO 00000KT 8SM OVC050 07/06 A3021 RMK AO2 SLP229 T00670056 $

EXPIRED METARs :
  • 080553Z AUTO 00000KT 9SM SCT046 06/05 A3022 RMK AO2 SLP233 T00610050 10133 20061 401830061 58006 $
  • 080453Z AUTO 00000KT 10SM CLR 07/06 A3023 RMK AO2 SLP236 T00720056 $

TAF KMSL
Valid from the 08 at 06:00 until the 09 at 06:00 UTC


080536Z 0806/0906 04005KT P6SM SKC
FM081000 VRB04KT P6SM BKN045
FM081200 14008G16KT P6SM BKN040
FM081400 15012G23KT P6SM BKN035



MET'MAP, your aeronautical weather chart ! - Copyright ORBIFLY December 2007 - Disclaimer

ORBIFLY MET'MAP TEAM :

Programming & Development : Alexandra Zaïnal
Concept & original design : Baudouin d'Aumeries
Assistance for programming : Marc-Olivier Méhu
Technical & hardware support : Manuel Goepfert

Contact : metmap@orbifly.com




SOURCES & CREDITS :

   NOAA       Earth
Advisory